Agua Boa, Brazil
Current Conditions -  °F | °C
As of 7:00 PM on Thursday 23 Oct 2014 (Local Time) from SBBW Reporting Station
Scattered Clouds Scattered Clouds  
Wind Chill: 81°   Ceiling: Unl
Heat Index: 84°   Visibility: 6mi
Dew Point: 70°   Wind: 3mph
Humidity: 70%   Direction: 60°ENE
Pressure: 29.88"   Gusts: NA
Location:  14.05°S, 52.16°W
Report Text: SBBW 232200Z 06003KT 9999 FEW020 SCT090 27/21 Q1012
Loading
Personal Weather Stations






























Interactive Weather Map
Tropical Storm Tracking
New forecast layout! Learn more

10-Day Weather Forecast

Advertisements
Track Severe Weather on mobile